Time;durP1;ratioP1;P1;durP2;ratioP2;P2;SDS_P1;SDS_P2;PMS_P1;PMS_P2;Temp;Humidity;BMP_temperature;BMP_pressure;BME280_temperature;BME280_humidity;BME280_pressure;Samples;Min_cycle;Max_cycle;Signal;HPM_P1;HPM_P2
2022/09/21 00:00:05;;;;;;;1.67;0.57;;;12.50;98.10;;;;;;5034375;28;20392;-74
2022/09/21 00:02:31;;;;;;;2.78;1.13;;;12.40;98.30;;;;;;5029769;28;20125;-74
2022/09/21 00:04:56;;;;;;;1.85;0.70;;;12.40;98.60;;;;;;5033935;28;20116;-75
2022/09/21 00:07:22;;;;;;;3.08;0.80;;;12.30;98.70;;;;;;5031109;28;20456;-74
2022/09/21 00:09:48;;;;;;;1.33;0.50;;;12.40;98.60;;;;;;5029675;28;20083;-74
2022/09/21 00:12:14;;;;;;;3.53;0.98;;;12.40;98.40;;;;;;5028524;28;20049;-74
2022/09/21 00:14:41;;;;;;;1.13;0.68;;;12.40;97.90;;;;;;5029359;28;20037;-74
2022/09/21 00:17:06;;;;;;;1.40;0.68;;;12.40;97.70;;;;;;5031051;28;20488;-75
2022/09/21 00:19:34;;;;;;;1.33;0.43;;;12.40;97.80;;;;;;5030833;28;20047;-74
2022/09/21 00:21:59;;;;;;;4.25;0.95;;;12.40;97.90;;;;;;5032720;28;20033;-74
2022/09/21 00:24:25;;;;;;;1.17;0.65;;;12.50;97.90;;;;;;5029426;28;20035;-74
2022/09/21 00:26:50;;;;;;;3.90;0.60;;;12.40;98.40;;;;;;5030961;28;20041;-74
2022/09/21 00:29:16;;;;;;;3.22;0.90;;;12.30;97.60;;;;;;5028991;28;20447;-74
2022/09/21 00:31:42;;;;;;;3.10;0.70;;;12.30;97.80;;;;;;5031583;28;20379;-74
2022/09/21 00:34:07;;;;;;;2.97;0.65;;;12.30;97.90;;;;;;5030837;28;20064;-74
2022/09/21 00:36:33;;;;;;;4.22;0.65;;;12.30;97.60;;;;;;5029535;28;20056;-74
2022/09/21 00:39:00;;;;;;;2.67;0.73;;;12.20;97.30;;;;;;5029255;28;20025;-74
2022/09/21 00:41:28;;;;;;;1.40;0.65;;;12.10;97.60;;;;;;5031684;28;20029;-74
2022/09/21 00:44:15;;;;;;;3.08;0.73;;;12.10;97.60;;;;;;5029782;28;20033;-74
2022/09/21 00:46:42;;;;;;;2.15;0.68;;;12.00;97.60;;;;;;5029465;28;20080;-74
2022/09/21 00:49:08;;;;;;;2.17;0.70;;;12.00;97.80;;;;;;5035937;28;20029;-74
2022/09/21 00:51:35;;;;;;;3.38;0.70;;;12.00;97.60;;;;;;5036663;28;20391;-74
2022/09/21 00:54:07;;;;;;;1.73;1.00;;;12.10;97.00;;;;;;5029997;28;20137;-74
2022/09/21 00:56:35;;;;;;;2.63;0.90;;;12.10;97.00;;;;;;5032858;28;20033;-74
2022/09/21 00:59:02;;;;;;;3.08;0.68;;;12.20;96.50;;;;;;5031025;28;20033;-74
2022/09/21 01:01:28;;;;;;;2.28;0.80;;;12.10;97.20;;;;;;5033376;28;20131;-74
2022/09/21 01:03:55;;;;;;;1.65;0.60;;;11.90;97.30;;;;;;5031277;28;20029;-74
2022/09/21 01:06:21;;;;;;;1.33;0.60;;;11.90;97.10;;;;;;5029091;28;20064;-74
2022/09/21 01:08:52;;;;;;;4.10;0.98;;;11.80;97.20;;;;;;5031253;28;20029;-74
2022/09/21 01:11:42;;;;;;;1.10;0.63;;;11.80;97.20;;;;;;5033369;28;20040;-74
2022/09/21 01:14:36;;;;;;;1.08;0.65;;;11.80;96.90;;;;;;5031558;28;20051;-74
2022/09/21 01:17:25;;;;;;;1.77;0.95;;;11.70;96.80;;;;;;5030060;28;20423;-74
2022/09/21 01:20:10;;;;;;;3.97;0.65;;;11.90;96.50;;;;;;5030401;28;20379;-74
2022/09/21 01:22:54;;;;;;;;;;;11.90;96.30;;;;;;5028670;28;20029;-74
2022/09/21 01:25:23;;;;;;;1.77;0.60;;;11.60;97.10;;;;;;5030087;28;20371;-74
2022/09/21 01:28:00;;;;;;;1.83;0.73;;;11.60;96.90;;;;;;5027852;28;20087;-74
2022/09/21 01:30:28;;;;;;;3.72;1.00;;;11.60;97.00;;;;;;5028091;28;20154;-74
2022/09/21 01:33:14;;;;;;;3.88;0.75;;;11.40;96.80;;;;;;5029192;28;20026;-74
2022/09/21 01:35:47;;;;;;;2.33;0.95;;;11.50;96.60;;;;;;5030242;28;20022;-74
2022/09/21 01:38:24;;;;;;;1.05;0.57;;;11.60;96.70;;;;;;5032936;28;20030;-74
2022/09/21 01:40:55;;;;;;;3.67;0.63;;;11.30;96.80;;;;;;5031156;28;20483;-74
2022/09/21 01:43:25;;;;;;;2.00;0.85;;;11.30;96.80;;;;;;5030110;28;20036;-74
2022/09/21 01:45:53;;;;;;;4.72;0.85;;;11.20;96.70;;;;;;5028090;28;20036;-74
2022/09/21 01:48:21;;;;;;;3.92;1.42;;;11.20;96.60;;;;;;5029637;28;20487;-74
2022/09/21 01:50:52;;;;;;;2.88;0.90;;;11.20;96.80;;;;;;5037047;28;20522;-74
2022/09/21 01:53:42;;;;;;;1.67;0.68;;;11.30;96.50;;;;;;5027548;28;20022;-74
2022/09/21 01:56:29;;;;;;;1.27;0.70;;;11.50;96.10;;;;;;5028309;28;20506;-74
2022/09/21 01:59:15;;;;;;;4.25;0.98;;;11.30;96.50;;;;;;5029456;28;20507;-74
2022/09/21 02:01:46;;;;;;;2.92;0.63;;;11.40;96.40;;;;;;5033103;28;20395;-74
2022/09/21 02:04:12;;;;;;;1.83;0.63;;;11.40;96.30;;;;;;5029228;28;20025;-74
2022/09/21 02:06:42;;;;;;;2.25;0.98;;;11.40;96.40;;;;;;5029723;28;20037;-74
2022/09/21 02:09:09;;;;;;;2.03;0.65;;;11.30;96.70;;;;;;5029172;28;20071;-74
2022/09/21 02:11:37;;;;;;;2.63;0.73;;;11.30;96.50;;;;;;5027012;28;20057;-74
2022/09/21 02:14:07;;;;;;;4.00;0.98;;;11.30;96.50;;;;;;5027815;28;20029;-74
2022/09/21 02:16:55;;;;;;;1.73;0.60;;;11.30;96.70;;;;;;5036359;28;20028;-74
2022/09/21 02:19:34;;;;;;;2.25;0.80;;;11.30;96.40;;;;;;5029609;28;20034;-74
2022/09/21 02:22:06;;;;;;;2.05;0.75;;;11.40;96.50;;;;;;5030350;28;20040;-74
2022/09/21 02:24:43;;;;;;;1.23;0.60;;;11.40;96.30;;;;;;5031072;28;20585;-74
2022/09/21 02:27:31;;;;;;;2.15;0.73;;;11.30;96.50;;;;;;5031883;28;20486;-74
2022/09/21 02:30:08;;;;;;;3.92;0.90;;;11.50;95.80;;;;;;5031590;28;20025;-74
2022/09/21 02:32:54;;;;;;;1.02;0.43;;;11.40;95.80;;;;;;5031880;28;20025;-74
2022/09/21 02:35:41;;;;;;;0.93;0.50;;;11.40;96.30;;;;;;5031542;28;20042;-74
2022/09/21 02:38:13;;;;;;;2.75;0.90;;;11.40;95.90;;;;;;5031589;28;20029;-74
2022/09/21 02:40:42;;;;;;;1.88;0.98;;;11.60;95.30;;;;;;5031536;28;20053;-74
2022/09/21 02:43:38;;;;;;;3.13;1.15;;;11.80;94.70;;;;;;5035669;28;20033;-74
2022/09/21 02:46:14;;;;;;;1.90;0.70;;;11.80;94.60;;;;;;5032520;28;20039;-74
2022/09/21 02:49:00;;;;;;;1.45;0.80;;;11.70;95.00;;;;;;5035721;28;20029;-74
2022/09/21 02:51:31;;;;;;;2.45;0.63;;;11.60;94.90;;;;;;5032017;28;20475;-74
2022/09/21 02:54:00;;;;;;;2.17;0.65;;;11.80;94.50;;;;;;5030948;28;20026;-74
2022/09/21 02:56:27;;;;;;;2.47;0.80;;;11.70;94.50;;;;;;5032192;28;20514;-74
2022/09/21 02:58:55;;;;;;;6.72;0.85;;;11.70;94.60;;;;;;5037177;28;20112;-74
2022/09/21 03:01:23;;;;;;;4.70;0.68;;;11.80;94.40;;;;;;5039679;28;20028;-73
2022/09/21 03:03:49;;;;;;;6.85;1.05;;;11.60;94.80;;;;;;5030725;28;20033;-73
2022/09/21 03:06:15;;;;;;;1.45;0.63;;;11.40;95.10;;;;;;5028137;28;20036;-73
2022/09/21 03:08:40;;;;;;;2.35;0.60;;;11.30;95.40;;;;;;5025765;28;20026;-73
2022/09/21 03:11:06;;;;;;;2.33;0.70;;;11.20;95.40;;;;;;5025031;28;24630;-73
2022/09/21 03:13:32;;;;;;;1.75;0.50;;;11.30;95.20;;;;;;5026221;28;20645;-73
2022/09/21 03:16:03;;;;;;;2.47;0.45;;;11.40;94.90;;;;;;5025038;28;20025;-73
2022/09/21 03:18:29;;;;;;;2.35;1.00;;;11.20;95.30;;;;;;5024670;28;20021;-73
2022/09/21 03:20:55;;;;;;;2.33;0.63;;;11.10;95.50;;;;;;5026350;28;20025;-73
2022/09/21 03:23:20;;;;;;;1.95;0.88;;;11.30;95.00;;;;;;5028607;28;20052;-73
2022/09/21 03:25:46;;;;;;;2.28;1.13;;;11.30;95.10;;;;;;5027284;28;20034;-73
2022/09/21 03:28:14;;;;;;;1.52;0.52;;;11.40;94.50;;;;;;5027190;28;20053;-73
2022/09/21 03:30:40;;;;;;;2.10;0.80;;;11.50;94.70;;;;;;5027325;28;20035;-73
2022/09/21 03:33:07;;;;;;;3.03;0.82;;;11.50;94.50;;;;;;5026275;28;20029;-73
2022/09/21 03:35:33;;;;;;;1.95;0.77;;;11.50;94.70;;;;;;5030453;28;20025;-72
2022/09/21 03:37:59;;;;;;;2.00;0.68;;;11.30;95.20;;;;;;5027337;28;20126;-73
2022/09/21 03:40:26;;;;;;;1.75;0.68;;;11.20;95.30;;;;;;5026921;28;20053;-73
2022/09/21 03:42:52;;;;;;;1.27;0.50;;;11.40;94.70;;;;;;5036915;28;20065;-72
2022/09/21 03:45:20;;;;;;;3.88;0.73;;;11.40;95.00;;;;;;5031876;28;20479;-72
2022/09/21 03:47:47;;;;;;;1.33;0.60;;;11.30;95.00;;;;;;5029922;28;20129;-72
2022/09/21 03:50:13;;;;;;;2.47;0.90;;;11.30;95.20;;;;;;5026630;28;20453;-73
2022/09/21 03:52:39;;;;;;;1.75;0.70;;;11.10;95.80;;;;;;5027128;28;20144;-73
2022/09/21 03:55:06;;;;;;;2.42;1.00;;;11.10;95.10;;;;;;5026136;28;20120;-73
2022/09/21 03:57:33;;;;;;;1.60;0.63;;;11.30;94.70;;;;;;5026817;28;20479;-73
2022/09/21 03:59:59;;;;;;;3.58;1.02;;;11.60;93.90;;;;;;5029648;28;20040;-72
2022/09/21 04:02:25;;;;;;;3.50;1.05;;;11.50;94.60;;;;;;5023959;28;20029;-72
2022/09/21 04:04:50;;;;;;;1.40;0.60;;;11.40;94.40;;;;;;5023289;28;20125;-72
2022/09/21 04:07:16;;;;;;;2.45;0.80;;;11.30;94.60;;;;;;5023618;28;20073;-73
2022/09/21 04:09:42;;;;;;;2.53;0.75;;;11.20;94.80;;;;;;5024571;28;20037;-73
2022/09/21 04:12:07;;;;;;;1.48;0.77;;;11.20;94.90;;;;;;5022419;28;20377;-73
2022/09/21 04:14:33;;;;;;;2.17;0.70;;;10.90;96.10;;;;;;5027619;28;20029;-73
2022/09/21 04:16:59;;;;;;;3.03;0.70;;;10.90;95.20;;;;;;5022303;28;20029;-73
2022/09/21 04:19:24;;;;;;;1.63;1.05;;;11.10;94.80;;;;;;5022317;28;20385;-73
2022/09/21 04:21:51;;;;;;;2.85;0.60;;;11.10;94.60;;;;;;5023755;28;20136;-73
2022/09/21 04:24:18;;;;;;;1.75;0.70;;;10.90;95.40;;;;;;5023972;28;20025;-72
2022/09/21 04:26:45;;;;;;;1.08;0.63;;;10.70;96.30;;;;;;5024818;28;20037;-73
2022/09/21 04:29:11;;;;;;;2.03;0.63;;;10.70;95.80;;;;;;5031146;28;20045;-73
2022/09/21 04:31:37;;;;;;;1.70;0.57;;;10.70;95.90;;;;;;5023172;28;20033;-73
2022/09/21 04:34:03;;;;;;;1.95;0.95;;;10.60;96.30;;;;;;5031232;28;20029;-73
2022/09/21 04:36:31;;;;;;;2.15;0.80;;;10.60;96.10;;;;;;5022695;28;20060;-73
2022/09/21 04:38:59;;;;;;;1.85;0.73;;;10.50;96.20;;;;;;5028953;28;20032;-73
2022/09/21 04:41:24;;;;;;;2.33;0.57;;;10.60;96.40;;;;;;5023778;28;20033;-73
2022/09/21 04:43:50;;;;;;;1.70;0.77;;;10.60;96.10;;;;;;5025854;28;20040;-73
2022/09/21 04:46:18;;;;;;;3.47;0.95;;;10.80;95.00;;;;;;5023081;28;20022;-73
2022/09/21 04:48:45;;;;;;;1.27;0.60;;;10.90;95.10;;;;;;5024796;28;20075;-72
2022/09/21 04:51:11;;;;;;;2.38;0.85;;;10.90;95.90;;;;;;5021862;28;20033;-72
2022/09/21 04:53:39;;;;;;;2.55;1.50;;;10.90;95.50;;;;;;5020373;28;20488;-73
2022/09/21 04:56:06;;;;;;;1.08;0.40;;;10.80;95.90;;;;;;5022134;28;20705;-73
2022/09/21 04:58:32;;;;;;;2.85;0.70;;;10.60;95.80;;;;;;5021490;28;20403;-72
2022/09/21 05:00:58;;;;;;;1.40;0.60;;;10.70;95.40;;;;;;5022317;28;20191;-73
2022/09/21 05:03:25;;;;;;;3.50;0.68;;;10.80;95.50;;;;;;5024173;28;20164;-73
2022/09/21 05:05:53;;;;;;;1.83;0.85;;;10.80;95.30;;;;;;5028192;28;20029;-73
2022/09/21 05:11:05;;;;;;;2.42;0.95;;;11.00;94.80;;;;;;5021657;28;20052;-73
2022/09/21 05:13:31;;;;;;;2.83;1.23;;;11.00;95.00;;;;;;5030741;28;20711;-73
2022/09/21 05:15:56;;;;;;;5.20;1.15;;;11.10;95.90;;;;;;5026769;28;20021;-73
2022/09/21 05:18:22;;;;;;;2.40;1.15;;;11.10;96.30;;;;;;5028209;28;20380;-73
2022/09/21 05:20:58;;;;;;;2.13;0.75;;;11.10;96.20;;;;;;5021891;28;20029;-73
2022/09/21 05:23:28;;;;;;;3.90;0.93;;;11.20;96.20;;;;;;5028747;28;21089;-72
2022/09/21 05:25:54;;;;;;;2.40;0.93;;;11.30;95.90;;;;;;5023272;28;20095;-73
2022/09/21 05:28:20;;;;;;;4.82;1.00;;;11.30;95.90;;;;;;5023232;28;20033;-73
2022/09/21 05:30:58;;;;;;;1.77;0.77;;;11.30;96.00;;;;;;5026874;28;20103;-73
2022/09/21 05:33:29;;;;;;;2.20;0.80;;;11.30;96.00;;;;;;5022084;28;20029;-73
2022/09/21 05:36:03;;;;;;;2.20;0.60;;;11.40;95.80;;;;;;5021487;28;20112;-73
2022/09/21 05:38:29;;;;;;;3.17;1.20;;;11.40;95.90;;;;;;5020750;28;20035;-73
2022/09/21 05:40:55;;;;;;;3.15;1.10;;;11.50;96.10;;;;;;5022629;28;20363;-73
2022/09/21 05:43:21;;;;;;;2.08;0.70;;;11.60;95.70;;;;;;5020517;28;20034;-73
2022/09/21 05:45:52;;;;;;;2.08;0.65;;;11.50;96.00;;;;;;5020504;28;20031;-73
2022/09/21 05:48:25;;;;;;;2.72;1.23;;;11.60;95.50;;;;;;5021124;28;20037;-72
2022/09/21 05:50:56;;;;;;;2.97;0.93;;;11.50;96.60;;;;;;5025853;28;20057;-72
2022/09/21 05:53:52;;;;;;;2.22;1.00;;;11.40;96.20;;;;;;5028415;28;20029;-72
2022/09/21 05:56:37;;;;;;;1.65;0.80;;;11.70;95.40;;;;;;5027418;28;20349;-71
2022/09/21 05:59:26;;;;;;;3.50;1.63;;;11.90;95.00;;;;;;5027181;28;20033;-72
2022/09/21 06:02:15;;;;;;;3.92;1.75;;;11.90;95.90;;;;;;5020599;28;20056;-73
2022/09/21 06:04:41;;;;;;;5.45;1.20;;;11.80;96.50;;;;;;5022970;28;20109;-70
2022/09/21 06:07:06;;;;;;;3.83;1.30;;;11.80;97.40;;;;;;5022018;28;20046;-71
2022/09/21 06:09:32;;;;;;;5.60;1.50;;;11.80;97.30;;;;;;5023943;28;20052;-71
2022/09/21 06:11:58;;;;;;;2.97;1.02;;;11.80;97.90;;;;;;5023514;28;20685;-72
2022/09/21 06:14:25;;;;;;;4.50;0.90;;;11.60;98.30;;;;;;5023626;28;20037;-72
2022/09/21 06:16:51;;;;;;;2.22;1.08;;;11.70;95.90;;;;;;5023525;28;20017;-72
2022/09/21 06:19:17;;;;;;;2.78;0.85;;;11.80;96.40;;;;;;5025738;28;20036;-72
2022/09/21 06:21:43;;;;;;;1.98;0.95;;;11.80;97.60;;;;;;5026061;28;20017;-72
2022/09/21 06:24:10;;;;;;;5.80;0.80;;;11.60;98.70;;;;;;5022310;28;20383;-73
2022/09/21 06:26:36;;;;;;;3.92;1.38;;;11.50;97.40;;;;;;5027879;28;20563;-72
2022/09/21 06:29:02;;;;;;;2.70;0.85;;;11.60;95.80;;;;;;5026527;28;20029;-72
2022/09/21 06:31:29;;;;;;;2.72;0.70;;;11.70;95.80;;;;;;5027588;28;20025;-72
2022/09/21 06:33:54;;;;;;;4.70;1.50;;;11.80;95.10;;;;;;5022665;28;20065;-72
2022/09/21 06:36:20;;;;;;;1.73;0.82;;;11.80;97.50;;;;;;5027310;28;20064;-72
2022/09/21 06:38:46;;;;;;;2.83;0.88;;;11.70;98.30;;;;;;5019806;28;20542;-72
2022/09/21 06:41:11;;;;;;;3.42;0.70;;;11.80;98.10;;;;;;5021014;28;20034;-72
2022/09/21 06:43:37;;;;;;;1.98;0.60;;;11.90;99.00;;;;;;5021763;28;20091;-72
2022/09/21 06:46:03;;;;;;;4.15;0.77;;;11.90;98.90;;;;;;5021538;28;20033;-73
2022/09/21 06:48:31;;;;;;;1.92;0.75;;;11.90;96.80;;;;;;5023727;28;20121;-72
2022/09/21 06:50:58;;;;;;;2.95;0.80;;;12.00;96.10;;;;;;5022284;28;20037;-72
2022/09/21 06:53:24;;;;;;;5.60;0.85;;;12.10;97.90;;;;;;5022644;28;20037;-73
2022/09/21 06:55:51;;;;;;;5.07;0.98;;;12.20;98.80;;;;;;5022898;28;20063;-72
2022/09/21 06:58:18;;;;;;;3.90;0.82;;;12.30;98.10;;;;;;5026051;28;20036;-75
2022/09/21 07:00:44;;;;;;;2.13;0.68;;;12.20;98.30;;;;;;5019540;28;20037;-73
2022/09/21 07:03:12;;;;;;;3.65;1.42;;;12.20;98.50;;;;;;5022043;28;20349;-78
2022/09/21 07:05:38;;;;;;;3.88;1.30;;;12.20;98.70;;;;;;5022461;28;20026;-78
2022/09/21 07:08:05;;;;;;;3.42;1.40;;;12.20;98.70;;;;;;5023874;28;20049;-74
2022/09/21 07:10:31;;;;;;;2.63;1.15;;;12.10;99.50;;;;;;5035383;28;20027;-74
2022/09/21 07:13:02;;;;;;;4.95;2.10;;;12.00;99.10;;;;;;5023960;28;20417;-74
2022/09/21 07:15:28;;;;;;;7.25;1.40;;;12.00;99.00;;;;;;5025652;28;20502;-74
2022/09/21 07:17:54;;;;;;;3.30;1.42;;;12.10;99.40;;;;;;5032518;28;20033;-74
2022/09/21 07:20:20;;;;;;;2.05;1.05;;;12.10;99.20;;;;;;5034121;28;20033;-74
2022/09/21 07:22:46;;;;;;;2.63;1.10;;;12.20;98.70;;;;;;5030845;28;20033;-74
2022/09/21 07:25:12;;;;;;;3.20;1.42;;;12.20;98.70;;;;;;5036260;28;20025;-74
2022/09/21 07:27:37;;;;;;;2.35;0.98;;;12.20;98.10;;;;;;5028852;28;20044;-74
2022/09/21 07:30:04;;;;;;;2.45;0.80;;;12.30;96.60;;;;;;5032499;28;20056;-74
2022/09/21 07:32:30;;;;;;;1.50;0.73;;;12.40;96.50;;;;;;5032809;28;20029;-74
2022/09/21 07:34:56;;;;;;;2.88;0.98;;;12.40;94.90;;;;;;5026801;28;20156;-74
2022/09/21 07:37:26;;;;;;;3.22;1.10;;;12.50;94.70;;;;;;5027762;28;20029;-74
2022/09/21 07:39:53;;;;;;;3.30;1.45;;;12.60;95.00;;;;;;5028253;28;20068;-74
2022/09/21 07:42:21;;;;;;;2.90;1.08;;;12.70;95.70;;;;;;5028895;28;20068;-74
2022/09/21 07:44:47;;;;;;;3.28;1.23;;;12.80;95.70;;;;;;5027809;28;20411;-74
2022/09/21 07:47:14;;;;;;;3.63;1.05;;;12.60;95.70;;;;;;5028379;28;20049;-74
2022/09/21 07:49:40;;;;;;;4.75;1.30;;;12.60;95.50;;;;;;5028672;28;20437;-74
2022/09/21 07:52:07;;;;;;;6.18;1.10;;;12.70;95.50;;;;;;5028034;28;20423;-74
2022/09/21 07:54:34;;;;;;;4.93;1.10;;;12.70;95.80;;;;;;5024852;28;20121;-74
2022/09/21 07:59:44;;;;;;;5.57;1.05;;;12.70;96.50;;;;;;5032062;28;20040;-74
2022/09/21 08:02:10;;;;;;;2.38;0.85;;;12.70;96.00;;;;;;5029699;28;20185;-74
2022/09/21 08:04:36;;;;;;;1.77;0.82;;;12.80;95.70;;;;;;5027290;28;20033;-74
2022/09/21 08:07:02;;;;;;;2.03;0.80;;;12.80;94.70;;;;;;5039795;28;20038;-75
2022/09/21 08:09:28;;;;;;;2.50;1.10;;;12.90;94.80;;;;;;5031338;28;20543;-74
2022/09/21 08:11:53;;;;;;;2.33;1.00;;;13.00;95.00;;;;;;5028459;28;20114;-74
2022/09/21 08:14:19;;;;;;;3.75;0.90;;;13.00;95.50;;;;;;5026568;28;20104;-74
2022/09/21 08:16:46;;;;;;;4.00;1.08;;;13.10;94.80;;;;;;5024843;28;20573;-74
2022/09/21 08:19:13;;;;;;;3.17;0.90;;;13.10;95.10;;;;;;5030036;28;20033;-74
2022/09/21 08:21:39;;;;;;;4.88;1.00;;;13.20;94.80;;;;;;5024261;28;20076;-74
2022/09/21 08:24:05;;;;;;;2.33;0.82;;;13.30;94.80;;;;;;5027562;28;20065;-74
2022/09/21 08:26:32;;;;;;;3.58;1.23;;;13.30;93.50;;;;;;5035397;28;20037;-74
2022/09/21 08:28:58;;;;;;;3.60;1.02;;;13.40;94.00;;;;;;5025855;28;20155;-74
2022/09/21 08:31:24;;;;;;;2.40;0.70;;;13.40;94.60;;;;;;5026964;28;20112;-74
2022/09/21 08:33:51;;;;;;;2.30;0.85;;;13.50;94.30;;;;;;5025993;28;20040;-74
2022/09/21 08:36:17;;;;;;;4.80;1.05;;;13.40;94.40;;;;;;5027982;28;20041;-74
2022/09/21 08:38:44;;;;;;;3.80;1.27;;;13.50;94.40;;;;;;5031715;28;20021;-74
2022/09/21 08:41:34;;;;;;;2.80;0.93;;;13.60;94.30;;;;;;5026202;28;20048;-74
2022/09/21 08:44:10;;;;;;;1.65;0.90;;;13.70;93.80;;;;;;5029132;28;20032;-74
2022/09/21 08:46:37;;;;;;;1.50;0.55;;;13.70;94.00;;;;;;5030482;28;20098;-74
2022/09/21 08:49:05;;;;;;;1.38;0.70;;;13.80;93.00;;;;;;5027135;28;20073;-74
2022/09/21 08:51:35;;;;;;;2.72;0.77;;;13.80;92.60;;;;;;5026145;28;20018;-74
2022/09/21 08:54:15;;;;;;;2.17;0.88;;;13.80;93.30;;;;;;5028631;28;20035;-74
2022/09/21 08:56:41;;;;;;;3.63;1.08;;;14.00;92.50;;;;;;5031968;28;20025;-74
2022/09/21 08:59:14;;;;;;;3.20;1.13;;;14.10;92.30;;;;;;5025137;28;20087;-74
2022/09/21 09:02:04;;;;;;;1.92;0.90;;;14.20;92.30;;;;;;5027730;28;20021;-74
2022/09/21 09:04:41;;;;;;;3.95;1.25;;;14.20;91.60;;;;;;5028728;28;20040;-74
2022/09/21 09:07:29;;;;;;;1.77;0.80;;;14.20;92.10;;;;;;5021902;28;20048;-74
2022/09/21 09:10:29;;;;;;;3.50;1.00;;;14.40;91.00;;;;;;5025754;28;20045;-74
2022/09/21 09:13:21;;;;;;;2.03;0.80;;;15.70;90.90;;;;;;5025159;28;20041;-74
2022/09/21 09:16:19;;;;;;;3.03;1.20;;;20.40;83.70;;;;;;5025934;28;20217;-74
2022/09/21 09:19:05;;;;;;;4.07;1.00;;;22.90;79.50;;;;;;5024813;28;20048;-74
2022/09/21 09:21:38;;;;;;;3.78;0.80;;;23.30;78.70;;;;;;5024511;28;20079;-74
2022/09/21 09:24:37;;;;;;;9.73;1.75;;;21.80;77.20;;;;;;5026062;28;20039;-74
2022/09/21 09:27:16;;;;;;;7.10;0.98;;;19.50;78.40;;;;;;5025201;28;20037;-74
2022/09/21 09:30:03;;;;;;;2.85;1.50;;;17.90;81.00;;;;;;5026191;28;20033;-74
2022/09/21 09:32:46;;;;;;;1.33;0.77;;;17.10;82.90;;;;;;5027854;28;20070;-74
2022/09/21 09:35:26;;;;;;;2.55;1.08;;;16.80;82.10;;;;;;5028036;28;20029;-74
2022/09/21 09:38:22;;;;;;;2.40;0.70;;;16.60;82.20;;;;;;5026031;28;20480;-74
2022/09/21 09:40:51;;;;;;;3.15;0.98;;;16.50;80.40;;;;;;5031517;28;20573;-74
2022/09/21 09:43:38;;;;;;;2.33;0.90;;;16.60;81.90;;;;;;5026600;28;20132;-74
2022/09/21 09:46:36;;;;;;;1.92;0.80;;;16.60;81.80;;;;;;5020237;28;20380;-74
2022/09/21 09:49:11;;;;;;;3.03;0.73;;;16.80;82.30;;;;;;5027332;28;20042;-74
2022/09/21 09:51:39;;;;;;;1.92;0.70;;;17.00;81.80;;;;;;5024279;28;20042;-74
2022/09/21 09:54:11;;;;;;;1.85;0.82;;;17.00;80.20;;;;;;5025073;28;20025;-74
2022/09/21 09:56:37;;;;;;;2.05;0.70;;;17.00;78.60;;;;;;5025024;28;20032;-74
2022/09/21 09:59:09;;;;;;;3.30;0.90;;;16.80;78.80;;;;;;5027726;28;20029;-74
2022/09/21 10:01:40;;;;;;;2.38;0.95;;;16.60;79.40;;;;;;5027890;28;20040;-74
2022/09/21 10:04:09;;;;;;;2.20;0.77;;;16.70;82.80;;;;;;5021667;28;20770;-75
2022/09/21 10:06:35;;;;;;;3.47;0.90;;;16.80;82.30;;;;;;5029655;28;20210;-74
2022/09/21 10:09:16;;;;;;;4.13;0.68;;;16.60;77.30;;;;;;5026993;28;20062;-74
2022/09/21 10:11:41;;;;;;;8.10;4.95;;;16.60;78.70;;;;;;5024394;28;20040;-74
2022/09/21 10:14:13;;;;;;;3.70;1.60;;;16.70;79.30;;;;;;5026901;28;20033;-75
2022/09/21 10:16:43;;;;;;;11.77;4.55;;;16.80;79.70;;;;;;5024739;28;20095;-75
2022/09/21 10:19:19;;;;;;;7.57;1.35;;;17.00;77.80;;;;;;5025294;28;20044;-75
2022/09/21 10:21:48;;;;;;;1.80;0.70;;;17.00;79.30;;;;;;5025771;28;20467;-74
2022/09/21 10:24:22;;;;;;;3.58;1.40;;;17.10;79.40;;;;;;5019125;28;20030;-74
2022/09/21 10:26:53;;;;;;;3.53;1.88;;;17.30;79.90;;;;;;5019615;28;20099;-74
2022/09/21 10:29:22;;;;;;;7.18;3.03;;;17.80;81.20;;;;;;5020543;28;20030;-74
2022/09/21 10:31:57;;;;;;;3.28;1.75;;;18.00;82.40;;;;;;5023353;28;20030;-74
2022/09/21 10:34:24;;;;;;;3.72;1.70;;;18.00;78.50;;;;;;5026273;28;20040;-74
2022/09/21 10:36:54;;;;;;;5.80;1.00;;;18.00;80.30;;;;;;5029080;28;20104;-74
2022/09/21 10:39:19;;;;;;;2.33;0.75;;;18.00;80.30;;;;;;5019999;28;20029;-74
2022/09/21 10:42:01;;;;;;;4.32;1.00;;;17.90;76.90;;;;;;5023708;28;20025;-74
2022/09/21 10:44:37;;;;;;;5.15;1.08;;;17.60;76.40;;;;;;5024706;28;20098;-74
2022/09/21 10:47:17;;;;;;;1.77;0.85;;;17.90;78.60;;;;;;5024509;28;20426;-74
2022/09/21 10:49:57;;;;;;;2.15;0.75;;;18.10;76.50;;;;;;5024856;28;20057;-74
2022/09/21 10:52:38;;;;;;;1.95;0.60;;;18.20;76.60;;;;;;5023537;28;20068;-74
2022/09/21 10:55:05;;;;;;;2.00;0.80;;;18.70;80.30;;;;;;5031512;28;20033;-74
2022/09/21 10:57:32;;;;;;;3.55;1.35;;;18.90;78.10;;;;;;5038344;28;20036;-74
2022/09/21 11:00:34;;;;;;;3.08;1.00;;;19.10;77.30;;;;;;5029565;28;20034;-75
2022/09/21 11:03:04;;;;;;;1.85;0.85;;;19.00;75.40;;;;;;5024720;28;20109;-74
2022/09/21 11:05:37;;;;;;;2.58;1.00;;;18.80;73.60;;;;;;5032419;28;20120;-74
2022/09/21 11:08:35;;;;;;;3.47;1.17;;;18.20;72.00;;;;;;5025911;28;20037;-74
2022/09/21 11:11:11;;;;;;;2.70;0.80;;;18.20;73.50;;;;;;5023894;28;20037;-74
2022/09/21 11:13:56;;;;;;;2.15;0.63;;;18.40;75.40;;;;;;5022653;28;20045;-75
2022/09/21 11:16:37;;;;;;;2.80;0.77;;;18.80;75.50;;;;;;5028482;28;20074;-75
2022/09/21 11:19:09;;;;;;;2.40;0.70;;;18.90;74.00;;;;;;5035480;28;20037;-75
2022/09/21 11:21:45;;;;;;;1.20;0.50;;;18.60;72.40;;;;;;5027720;28;20034;-74
2022/09/21 11:24:31;;;;;;;1.65;0.68;;;18.30;74.10;;;;;;5026526;28;20057;-74
2022/09/21 11:27:09;;;;;;;1.55;0.60;;;18.80;74.70;;;;;;5031843;28;20052;-75
2022/09/21 11:29:46;;;;;;;4.72;0.80;;;19.10;74.20;;;;;;5026173;28;20070;-75
2022/09/21 11:32:39;;;;;;;2.03;0.88;;;19.20;74.60;;;;;;5026613;28;20032;-75
2022/09/21 11:35:29;;;;;;;2.80;0.90;;;19.30;72.50;;;;;;5028020;28;20095;-75
2022/09/21 11:38:12;;;;;;;1.90;0.90;;;19.10;73.70;;;;;;5026777;28;20037;-75
2022/09/21 11:41:10;;;;;;;2.47;0.85;;;19.10;73.40;;;;;;5031991;28;20507;-74
2022/09/21 11:43:54;;;;;;;4.10;0.60;;;19.10;73.40;;;;;;5046036;28;20041;-74
2022/09/21 11:46:38;;;;;;;0.82;0.40;;;19.50;73.30;;;;;;5032771;28;20025;-75
2022/09/21 11:49:07;;;;;;;;;;;19.70;71.80;;;;;;5033292;28;20025;-74
2022/09/21 11:52:02;;;;;;;0.95;0.32;;;19.50;70.80;;;;;;5033120;28;20367;-75
2022/09/21 11:54:52;;;;;;;1.48;0.47;;;19.80;72.50;;;;;;5028561;28;20454;-74
2022/09/21 11:57:38;;;;;;;1.75;0.65;;;19.70;70.60;;;;;;5030988;28;20035;-75
2022/09/21 12:00:14;;;;;;;1.45;0.52;;;20.00;70.10;;;;;;5034483;28;20029;-74
2022/09/21 12:03:14;;;;;;;1.25;0.65;;;20.10;69.60;;;;;;5038175;28;20044;-75
2022/09/21 12:05:40;;;;;;;2.78;0.70;;;20.20;71.10;;;;;;5030866;28;20025;-74
2022/09/21 12:08:47;;;;;;;1.13;0.45;;;20.40;71.60;;;;;;5026382;28;20126;-75
2022/09/21 12:11:27;;;;;;;1.70;0.60;;;20.30;72.60;;;;;;5031287;28;20094;-74
2022/09/21 12:14:21;;;;;;;1.15;0.40;;;20.20;70.40;;;;;;5035913;28;20045;-75
2022/09/21 12:17:10;;;;;;;1.60;0.70;;;20.20;73.90;;;;;;5037815;28;20121;-75
2022/09/21 12:19:45;;;;;;;3.25;0.68;;;20.40;73.70;;;;;;5035446;28;20288;-75
2022/09/21 12:22:33;;;;;;;1.85;0.70;;;20.20;72.70;;;;;;5037285;28;20112;-75
2022/09/21 12:25:12;;;;;;;1.58;0.60;;;20.10;70.00;;;;;;5029625;28;20025;-75
2022/09/21 12:27:42;;;;;;;2.22;0.75;;;20.10;68.30;;;;;;5033452;28;20206;-75
2022/09/21 12:30:15;;;;;;;2.33;0.77;;;20.10;69.40;;;;;;5032850;28;20029;-75
2022/09/21 12:32:49;;;;;;;1.73;0.70;;;20.20;75.00;;;;;;5034030;28;20028;-75
2022/09/21 12:35:24;;;;;;;1.75;0.73;;;20.30;72.70;;;;;;5027428;28;20799;-75
2022/09/21 12:38:27;;;;;;;1.40;0.50;;;20.60;73.70;;;;;;5029305;28;20341;-75
2022/09/21 12:41:04;;;;;;;2.15;1.00;;;20.50;75.40;;;;;;5027242;28;20104;-75
2022/09/21 12:43:59;;;;;;;3.25;0.80;;;20.70;72.90;;;;;;5030495;28;20116;-75
2022/09/21 12:46:37;;;;;;;6.30;0.82;;;20.70;74.40;;;;;;5003054;28;20038;-75
2022/09/21 12:49:14;;;;;;;3.60;0.98;;;20.60;72.80;;;;;;5026234;28;20120;-76
2022/09/21 12:51:47;;;;;;;1.85;0.45;;;20.60;75.60;;;;;;5027422;28;20041;-77
2022/09/21 12:54:27;;;;;;;2.05;0.77;;;20.60;73.80;;;;;;5032309;28;20105;-76
2022/09/21 12:57:20;;;;;;;8.98;0.90;;;20.60;73.90;;;;;;5022512;28;20037;-79
2022/09/21 13:00:08;;;;;;;2.58;0.70;;;20.60;73.80;;;;;;5034010;28;20474;-79
2022/09/21 13:02:46;;;;;;;2.70;0.98;;;20.40;73.90;;;;;;5026395;28;20047;-79
2022/09/21 13:05:18;;;;;;;5.00;0.90;;;20.50;74.60;;;;;;5026266;28;20037;-79
2022/09/21 13:08:03;;;;;;;3.55;1.02;;;20.60;73.60;;;;;;5021417;28;20044;-77
2022/09/21 13:10:54;;;;;;;2.30;0.65;;;20.40;74.70;;;;;;5029128;28;20633;-77
2022/09/21 13:13:32;;;;;;;4.93;0.68;;;20.40;74.50;;;;;;5025691;28;20061;-77
2022/09/21 13:16:00;;;;;;;3.05;0.88;;;20.40;75.80;;;;;;5024886;28;20037;-78
2022/09/21 13:18:31;;;;;;;3.22;0.70;;;20.50;75.40;;;;;;5026204;28;20032;-77
2022/09/21 13:20:57;;;;;;;1.88;0.60;;;20.40;75.30;;;;;;5024013;28;20040;-77